createdAt,value
2023-02-04T00:01:54.512Z,79.11
2023-02-04T00:04:20.830Z,79.55
2023-02-04T00:06:47.151Z,79.23
2023-02-04T00:09:13.587Z,79.40
2023-02-04T00:11:39.967Z,79.48
2023-02-04T00:14:06.415Z,79.76
2023-02-04T00:16:32.749Z,80.63
2023-02-04T00:18:59.199Z,80.22
2023-02-04T00:21:25.558Z,79.95
2023-02-04T00:23:52.011Z,80.03
2023-02-04T00:26:18.371Z,80.12
2023-02-04T00:28:44.683Z,80.40
2023-02-04T00:31:11.085Z,80.50
2023-02-04T00:33:37.576Z,80.62
2023-02-04T00:36:04.238Z,80.60
2023-02-04T00:38:30.612Z,80.77
2023-02-04T00:40:56.963Z,81.09
2023-02-04T00:43:23.313Z,80.75
2023-02-04T00:45:49.645Z,80.75
2023-02-04T00:48:15.999Z,80.96
2023-02-04T00:50:42.390Z,81.27
2023-02-04T00:53:09.370Z,80.90
2023-02-04T00:55:35.755Z,81.49
2023-02-04T00:58:02.102Z,80.98
2023-02-04T01:00:28.628Z,80.82
2023-02-04T01:02:55.167Z,80.99
2023-02-04T01:05:21.546Z,80.76
2023-02-04T01:07:47.909Z,81.00
2023-02-04T01:10:16.014Z,80.99
2023-02-04T01:12:42.654Z,81.04
2023-02-04T01:15:09.765Z,81.35
2023-02-04T01:17:36.265Z,81.18
2023-02-04T01:20:02.602Z,81.16
2023-02-04T01:22:28.952Z,81.18
2023-02-04T01:24:55.275Z,81.14
2023-02-04T01:27:40.307Z,80.84
2023-02-04T01:30:07.105Z,80.94
2023-02-04T01:32:34.008Z,81.03
2023-02-04T01:35:00.380Z,80.83
2023-02-04T01:37:26.688Z,81.18
2023-02-04T01:39:52.995Z,81.42
2023-02-04T01:42:19.783Z,81.68
2023-02-04T01:44:46.959Z,81.52
2023-02-04T01:47:13.441Z,81.51
2023-02-04T01:49:40.037Z,81.27
2023-02-04T01:52:06.762Z,81.68
2023-02-04T01:54:33.263Z,81.33
2023-02-04T01:56:59.675Z,81.10
2023-02-04T01:59:26.818Z,81.68
2023-02-04T02:01:54.092Z,81.79
2023-02-04T02:04:29.064Z,81.88
2023-02-04T02:06:58.723Z,81.68
2023-02-04T02:09:29.883Z,81.23
2023-02-04T02:11:56.756Z,81.28
2023-02-04T02:14:23.813Z,81.35
2023-02-04T02:16:50.297Z,81.22
2023-02-04T02:19:25.212Z,81.25
2023-02-04T02:22:05.313Z,81.26
2023-02-04T02:24:34.574Z,80.91
2023-02-04T02:27:09.155Z,81.58
2023-02-04T02:29:37.478Z,81.18
2023-02-04T02:32:04.599Z,81.64
2023-02-04T02:34:31.721Z,81.19
2023-02-04T02:37:00.055Z,81.50
2023-02-04T02:39:26.837Z,81.69
2023-02-04T02:41:54.938Z,81.47
2023-02-04T02:44:22.323Z,81.60
2023-02-04T02:46:48.935Z,81.58
2023-02-04T02:49:18.567Z,81.98
2023-02-04T02:51:48.078Z,81.51
2023-02-04T02:54:27.126Z,81.85
2023-02-04T02:56:57.221Z,81.89
2023-02-04T02:59:25.255Z,81.70
2023-02-04T03:01:57.306Z,81.81
2023-02-04T03:04:26.309Z,81.97
2023-02-04T03:06:53.963Z,81.62
2023-02-04T03:09:20.476Z,82.01
2023-02-04T03:11:48.091Z,81.80
2023-02-04T03:14:15.062Z,81.94
2023-02-04T03:16:41.811Z,81.68
2023-02-04T03:19:08.371Z,81.87
2023-02-04T03:21:35.588Z,81.80
2023-02-04T03:24:03.229Z,82.15
2023-02-04T03:26:29.623Z,82.28
2023-02-04T03:28:55.983Z,82.50
2023-02-04T03:31:23.861Z,82.24
2023-02-04T03:33:50.323Z,82.44
2023-02-04T03:36:16.702Z,82.73
2023-02-04T03:38:43.036Z,82.85
2023-02-04T03:41:09.357Z,82.66
2023-02-04T03:43:35.742Z,82.73
2023-02-04T03:46:02.288Z,82.74
2023-02-04T03:48:28.627Z,82.61
2023-02-04T03:50:54.959Z,82.81
2023-02-04T03:53:22.038Z,82.87
2023-02-04T03:55:48.399Z,83.13
2023-02-04T03:58:14.714Z,83.22
2023-02-04T04:00:41.121Z,83.20
2023-02-04T04:03:07.541Z,82.63
2023-02-04T04:05:33.958Z,82.83
2023-02-04T04:08:00.294Z,82.55
2023-02-04T04:10:26.649Z,82.82
2023-02-04T04:12:52.995Z,82.35
2023-02-04T04:15:19.362Z,82.23
2023-02-04T04:17:45.687Z,82.36
2023-02-04T04:20:12.470Z,82.27
2023-02-04T04:22:39.294Z,82.81
2023-02-04T04:25:06.353Z,82.49
2023-02-04T04:27:32.692Z,82.76
2023-02-04T04:29:59.093Z,82.68
2023-02-04T04:32:25.457Z,83.01
2023-02-04T04:34:51.775Z,82.92
2023-02-04T04:37:18.109Z,82.67
2023-02-04T04:39:44.436Z,82.76
2023-02-04T04:42:10.789Z,82.74
2023-02-04T04:44:37.146Z,82.28
2023-02-04T04:47:03.610Z,82.71
2023-02-04T04:49:29.978Z,82.89
2023-02-04T04:51:56.318Z,82.87
2023-02-04T04:54:22.654Z,82.55
2023-02-04T04:56:48.953Z,82.55
2023-02-04T04:59:15.311Z,82.78
2023-02-04T05:01:41.690Z,82.97
2023-02-04T05:04:08.017Z,82.78
2023-02-04T05:06:34.349Z,82.88
2023-02-04T05:09:00.695Z,82.98
2023-02-04T05:11:27.481Z,83.02
2023-02-04T05:13:53.782Z,83.20
2023-02-04T05:16:20.186Z,83.00
2023-02-04T05:18:46.542Z,82.89
2023-02-04T05:21:12.921Z,83.24
2023-02-04T05:23:39.279Z,83.07
2023-02-04T05:26:05.766Z,83.13
2023-02-04T05:28:32.161Z,83.03
2023-02-04T05:30:58.505Z,83.33
2023-02-04T05:33:24.991Z,83.54
2023-02-04T05:35:51.338Z,83.59
2023-02-04T05:38:17.685Z,83.55
2023-02-04T05:40:44.015Z,83.42
2023-02-04T05:43:10.758Z,83.38
2023-02-04T05:45:37.177Z,83.39
2023-02-04T05:48:03.829Z,83.59
2023-02-04T05:50:30.342Z,83.59
2023-02-04T05:53:08.224Z,83.64
2023-02-04T05:55:34.541Z,83.71
2023-02-04T05:58:00.991Z,83.98
2023-02-04T06:00:27.318Z,83.85
2023-02-04T06:02:53.709Z,83.65
2023-02-04T06:05:20.224Z,83.76
2023-02-04T06:07:46.821Z,83.87
2023-02-04T06:10:13.150Z,83.73
2023-02-04T06:12:39.579Z,83.43
2023-02-04T06:15:06.537Z,83.50
2023-02-04T06:17:32.927Z,83.28
2023-02-04T06:19:59.266Z,83.15
2023-02-04T06:22:26.687Z,83.48
2023-02-04T06:24:53.043Z,83.47
2023-02-04T06:27:23.193Z,83.34
2023-02-04T06:29:53.644Z,83.22
2023-02-04T06:32:20.972Z,83.51
2023-02-04T06:34:47.591Z,83.54
2023-02-04T06:37:15.683Z,83.34
2023-02-04T06:39:41.988Z,83.85
2023-02-04T06:42:08.581Z,83.50
2023-02-04T06:44:34.939Z,83.94
2023-02-04T06:47:01.320Z,83.80
2023-02-04T06:49:27.726Z,84.21
2023-02-04T06:51:55.162Z,84.19
2023-02-04T06:54:21.816Z,83.81
2023-02-04T06:56:48.265Z,83.99
2023-02-04T06:59:14.612Z,83.93
2023-02-04T07:01:41.074Z,83.98
2023-02-04T07:04:07.455Z,83.80
2023-02-04T07:06:33.786Z,84.03
2023-02-04T07:09:00.148Z,84.31
2023-02-04T07:11:26.492Z,84.16
2023-02-04T07:13:52.803Z,84.29
2023-02-04T07:16:19.171Z,84.49
2023-02-04T07:18:45.594Z,84.47
2023-02-04T07:21:11.956Z,84.57
2023-02-04T07:23:38.396Z,84.43
2023-02-04T07:26:04.830Z,84.30
2023-02-04T07:28:31.458Z,84.26
2023-02-04T07:30:57.865Z,84.42
2023-02-04T07:33:24.268Z,84.20
2023-02-04T07:35:50.577Z,84.36
2023-02-04T07:38:16.945Z,84.08
2023-02-04T07:40:43.337Z,84.01
2023-02-04T07:43:09.810Z,84.18
2023-02-04T07:45:37.586Z,84.35
2023-02-04T07:48:04.212Z,84.06
2023-02-04T07:50:31.130Z,84.18
2023-02-04T07:52:57.778Z,84.54
2023-02-04T07:55:24.217Z,84.43
2023-02-04T07:57:50.580Z,84.41
2023-02-04T08:00:17.148Z,84.51
2023-02-04T08:02:43.510Z,84.50
2023-02-04T08:05:10.192Z,84.35
2023-02-04T08:07:36.528Z,84.14
2023-02-04T08:10:04.670Z,84.10
2023-02-04T08:12:31.057Z,84.32
2023-02-04T08:14:57.456Z,84.08
2023-02-04T08:17:23.833Z,84.30
2023-02-04T08:19:50.442Z,84.46
2023-02-04T08:22:17.223Z,84.78
2023-02-04T08:24:43.545Z,84.40
2023-02-04T08:27:10.007Z,84.64
2023-02-04T08:29:36.377Z,84.71
2023-02-04T08:32:03.900Z,84.60
2023-02-04T08:34:30.653Z,84.68
2023-02-04T08:36:57.074Z,84.27
2023-02-04T08:39:23.426Z,84.12
2023-02-04T08:41:51.186Z,84.05
2023-02-04T08:44:17.497Z,83.59
2023-02-04T08:46:43.926Z,83.49
2023-02-04T08:49:10.313Z,83.27
2023-02-04T08:51:36.666Z,83.37
2023-02-04T08:54:03.072Z,84.05
2023-02-04T08:56:29.451Z,83.77
2023-02-04T08:58:55.771Z,83.51
2023-02-04T09:01:22.145Z,83.81
2023-02-04T09:03:48.587Z,83.78
2023-02-04T09:06:15.047Z,84.10
2023-02-04T09:08:41.416Z,83.98
2023-02-04T09:11:10.535Z,83.80
2023-02-04T09:13:36.871Z,83.69
2023-02-04T09:16:03.345Z,83.50
2023-02-04T09:18:30.637Z,83.00
2023-02-04T09:20:56.954Z,83.22
2023-02-04T09:23:23.895Z,82.72
2023-02-04T09:25:50.740Z,82.62
2023-02-04T09:28:17.668Z,82.69
2023-02-04T09:30:46.128Z,82.69
2023-02-04T09:33:14.302Z,82.79
2023-02-04T09:35:40.688Z,82.83
2023-02-04T09:38:07.133Z,82.84
2023-02-04T09:40:40.801Z,82.18
2023-02-04T09:43:07.323Z,82.60
2023-02-04T09:45:36.213Z,82.17
2023-02-04T09:48:06.368Z,82.07
2023-02-04T09:50:33.869Z,81.36
2023-02-04T09:53:04.397Z,81.96
2023-02-04T09:55:37.581Z,81.33
2023-02-04T09:58:16.330Z,82.32
2023-02-04T10:00:44.396Z,82.05
2023-02-04T10:03:19.362Z,81.32
2023-02-04T10:05:46.506Z,81.01
2023-02-04T10:08:16.941Z,81.22
2023-02-04T10:10:44.437Z,81.13
2023-02-04T10:13:20.254Z,82.22
2023-02-04T10:15:48.817Z,81.67
2023-02-04T10:18:26.086Z,80.93
2023-02-04T10:21:00.833Z,80.96
2023-02-04T10:23:27.261Z,81.49
2023-02-04T10:25:53.582Z,81.02
2023-02-04T10:28:20.012Z,81.28
2023-02-04T10:30:47.119Z,80.69
2023-02-04T10:33:23.800Z,80.23
2023-02-04T10:35:52.917Z,80.02
2023-02-04T10:38:20.366Z,80.31
2023-02-04T10:40:47.564Z,79.93
2023-02-04T10:43:22.782Z,78.83
2023-02-04T10:45:58.440Z,79.40
2023-02-04T10:48:25.349Z,78.48
2023-02-04T10:50:51.740Z,78.42
2023-02-04T10:53:39.447Z,77.95
2023-02-04T10:56:21.007Z,78.05
2023-02-04T10:58:48.039Z,77.58
2023-02-04T11:01:16.682Z,78.29
2023-02-04T11:03:45.909Z,77.97
2023-02-04T11:06:20.195Z,78.12
2023-02-04T11:08:46.765Z,77.35
2023-02-04T11:11:19.207Z,76.79
2023-02-04T11:13:58.629Z,76.46
2023-02-04T11:16:27.638Z,77.10
2023-02-04T11:19:00.208Z,77.46
2023-02-04T11:21:41.190Z,77.05
2023-02-04T11:24:16.286Z,76.89
2023-02-04T11:26:47.527Z,76.73
2023-02-04T11:29:16.884Z,77.16
2023-02-04T11:31:49.373Z,76.95
2023-02-04T11:34:15.820Z,76.99
2023-02-04T11:37:00.683Z,77.45
2023-02-04T11:39:32.753Z,77.13
2023-02-04T11:42:00.235Z,76.85
2023-02-04T11:44:27.360Z,76.80
2023-02-04T11:46:58.397Z,77.15
2023-02-04T11:49:26.987Z,76.92
2023-02-04T11:52:14.311Z,75.96
2023-02-04T11:54:40.645Z,76.55
2023-02-04T11:57:07.020Z,76.57
2023-02-04T11:59:33.414Z,76.90
2023-02-04T12:02:15.525Z,77.05
2023-02-04T12:04:54.560Z,76.00
2023-02-04T12:07:25.422Z,76.63
2023-02-04T12:09:51.769Z,76.55
2023-02-04T12:12:29.933Z,75.74
2023-02-04T12:15:17.672Z,75.58
2023-02-04T12:17:45.656Z,75.17
2023-02-04T12:20:14.817Z,75.97
2023-02-04T12:22:41.191Z,76.67
2023-02-04T12:25:08.022Z,75.98
2023-02-04T12:27:34.398Z,75.46
2023-02-04T12:30:00.774Z,76.02
2023-02-04T12:32:27.094Z,75.03
2023-02-04T12:34:53.402Z,75.07
2023-02-04T12:37:19.734Z,75.76
2023-02-04T12:39:46.052Z,75.59
2023-02-04T12:42:12.390Z,75.08
2023-02-04T12:44:38.749Z,74.58
2023-02-04T12:47:05.167Z,76.00
2023-02-04T12:49:31.522Z,75.24
2023-02-04T12:51:59.129Z,75.42
2023-02-04T12:54:25.512Z,74.11
2023-02-04T12:56:53.370Z,74.80
2023-02-04T12:59:19.708Z,73.97
2023-02-04T13:01:46.074Z,74.33
2023-02-04T13:04:12.447Z,74.09
2023-02-04T13:06:38.802Z,74.01
2023-02-04T13:09:05.193Z,73.44
2023-02-04T13:11:31.507Z,73.31
2023-02-04T13:13:57.849Z,74.41
2023-02-04T13:16:24.724Z,72.88
2023-02-04T13:18:51.122Z,72.51
2023-02-04T13:21:17.707Z,73.70
2023-02-04T13:23:44.435Z,73.61
2023-02-04T13:26:11.472Z,72.69
2023-02-04T13:28:38.004Z,72.89
2023-02-04T13:31:04.883Z,72.48
2023-02-04T13:33:31.313Z,72.64
2023-02-04T13:35:57.653Z,71.26
2023-02-04T13:38:25.203Z,69.63
2023-02-04T13:40:51.525Z,70.24
2023-02-04T13:43:17.882Z,69.95
2023-02-04T13:45:47.663Z,69.45
2023-02-04T13:48:16.046Z,68.85
2023-02-04T13:50:42.571Z,70.38
2023-02-04T13:53:08.913Z,69.00
2023-02-04T13:55:35.240Z,69.16
2023-02-04T13:58:01.618Z,69.38
2023-02-04T14:00:28.003Z,67.14
2023-02-04T14:02:56.190Z,67.25
2023-02-04T14:05:22.509Z,64.91
2023-02-04T14:07:48.833Z,66.08
2023-02-04T14:10:17.960Z,65.52
2023-02-04T14:12:44.499Z,64.71
2023-02-04T14:15:10.979Z,65.43
2023-02-04T14:17:37.389Z,65.02
2023-02-04T14:20:05.384Z,64.93
2023-02-04T14:22:31.808Z,65.34
2023-02-04T14:24:58.569Z,63.95
2023-02-04T14:27:25.023Z,64.19
2023-02-04T14:29:51.594Z,64.71
2023-02-04T14:32:18.031Z,64.09
2023-02-04T14:34:44.349Z,62.80
2023-02-04T14:37:10.677Z,64.25
2023-02-04T14:39:37.004Z,63.33
2023-02-04T14:42:05.098Z,63.09
2023-02-04T14:44:32.375Z,63.86
2023-02-04T14:46:58.809Z,63.61
2023-02-04T14:49:25.630Z,63.14
2023-02-04T14:51:51.952Z,62.73
2023-02-04T14:54:18.405Z,63.07
2023-02-04T14:56:47.635Z,62.66
2023-02-04T14:59:14.039Z,63.28
2023-02-04T15:01:42.219Z,64.93
2023-02-04T15:04:09.737Z,65.28
2023-02-04T15:06:37.506Z,65.18
2023-02-04T15:09:03.979Z,62.75
2023-02-04T15:11:31.273Z,62.59
2023-02-04T15:13:57.667Z,62.25
2023-02-04T15:16:23.992Z,62.70
2023-02-04T15:18:50.477Z,61.51
2023-02-04T15:21:17.752Z,62.12
2023-02-04T15:23:44.967Z,64.92
2023-02-04T15:26:11.338Z,65.46
2023-02-04T15:28:37.850Z,66.69
2023-02-04T15:31:05.211Z,65.42
2023-02-04T15:33:32.172Z,65.27
2023-02-04T15:35:58.553Z,64.46
2023-02-04T15:38:24.925Z,66.54
2023-02-04T15:40:51.284Z,65.70
2023-02-04T15:43:17.623Z,65.57
2023-02-04T15:45:44.332Z,66.11
2023-02-04T15:48:11.107Z,66.84
2023-02-04T15:50:38.734Z,67.43
2023-02-04T15:53:05.250Z,68.20
2023-02-04T15:55:31.601Z,68.60
2023-02-04T15:57:57.991Z,68.45
2023-02-04T16:00:25.075Z,67.07
2023-02-04T16:02:51.473Z,65.18
2023-02-04T16:05:17.924Z,64.38
2023-02-04T16:07:44.367Z,64.60
2023-02-04T16:10:10.923Z,64.86
2023-02-04T16:12:37.376Z,65.43
2023-02-04T16:15:04.125Z,66.21
2023-02-04T16:17:30.579Z,66.45
2023-02-04T16:19:57.960Z,67.04
2023-02-04T16:22:24.419Z,67.45
2023-02-04T16:24:52.694Z,68.42
2023-02-04T16:27:19.528Z,68.31
2023-02-04T16:29:45.916Z,68.72
2023-02-04T16:32:12.409Z,68.97
2023-02-04T16:34:38.791Z,69.77
2023-02-04T16:37:05.201Z,70.00
2023-02-04T16:39:31.626Z,69.41
2023-02-04T16:41:58.050Z,69.78
2023-02-04T16:44:24.506Z,69.51
2023-02-04T16:46:51.126Z,70.39
2023-02-04T16:49:17.629Z,69.88
2023-02-04T16:51:43.978Z,70.21
2023-02-04T16:54:10.351Z,70.72
2023-02-04T16:56:36.720Z,70.95
2023-02-04T16:59:03.511Z,70.81
2023-02-04T17:01:30.425Z,70.91
2023-02-04T17:03:59.708Z,71.19
2023-02-04T17:06:27.957Z,71.57
2023-02-04T17:08:54.869Z,72.08
2023-02-04T17:11:31.605Z,72.11
2023-02-04T17:14:06.650Z,72.71
2023-02-04T17:16:33.121Z,73.08
2023-02-04T17:18:59.544Z,73.39
2023-02-04T17:21:27.430Z,73.56
2023-02-04T17:23:55.182Z,74.26
2023-02-04T17:26:24.186Z,74.28
2023-02-04T17:28:51.126Z,74.25
2023-02-04T17:31:17.555Z,74.12
2023-02-04T17:33:43.991Z,74.57
2023-02-04T17:36:11.223Z,74.18
2023-02-04T17:38:37.690Z,75.14
2023-02-04T17:41:04.222Z,75.20
2023-02-04T17:43:31.009Z,76.00
2023-02-04T17:45:57.439Z,76.22
2023-02-04T17:48:23.773Z,76.29
2023-02-04T17:50:50.285Z,76.54
2023-02-04T17:53:16.730Z,76.98
2023-02-04T17:55:43.106Z,77.50
2023-02-04T17:58:12.345Z,77.82
2023-02-04T18:00:39.256Z,77.90
2023-02-04T18:03:09.728Z,78.71
2023-02-04T18:05:43.065Z,78.68
2023-02-04T18:08:16.016Z,78.58
2023-02-04T18:10:47.876Z,79.03
2023-02-04T18:13:19.060Z,79.46
2023-02-04T18:15:49.129Z,79.96
2023-02-04T18:18:40.093Z,79.76
2023-02-04T18:21:20.311Z,79.81
2023-02-04T18:23:49.505Z,79.98
2023-02-04T18:26:18.899Z,80.13
2023-02-04T18:28:47.534Z,80.57
2023-02-04T18:31:35.699Z,80.31
2023-02-04T18:34:16.757Z,80.75
2023-02-04T18:36:43.339Z,80.28
2023-02-04T18:39:17.733Z,80.44
2023-02-04T18:41:47.645Z,80.11
2023-02-04T18:44:30.119Z,80.12
2023-02-04T18:46:56.574Z,80.32
2023-02-04T18:49:32.828Z,80.31
2023-02-04T18:52:06.440Z,80.31
2023-02-04T18:54:38.603Z,80.32
2023-02-04T18:57:28.654Z,80.34
2023-02-04T19:00:10.229Z,80.43
2023-02-04T19:02:39.373Z,80.60
2023-02-04T19:05:41.288Z,80.66
2023-02-04T19:08:22.383Z,80.96
2023-02-04T19:10:50.115Z,80.81
2023-02-04T19:13:40.231Z,80.91
2023-02-04T19:16:21.497Z,80.85
2023-02-04T19:18:48.250Z,80.92
2023-02-04T19:21:14.522Z,81.09
2023-02-04T19:23:40.857Z,81.27
2023-02-04T19:26:28.851Z,81.41
2023-02-04T19:28:55.594Z,81.37
2023-02-04T19:31:22.673Z,81.51
2023-02-04T19:33:50.416Z,81.63
2023-02-04T19:36:31.736Z,81.99
2023-02-04T19:39:01.103Z,81.71
2023-02-04T19:41:33.189Z,81.63
2023-02-04T19:44:15.154Z,81.80
2023-02-04T19:46:42.234Z,81.93
2023-02-04T19:49:29.665Z,82.02
2023-02-04T19:51:58.028Z,81.58
2023-02-04T19:54:36.935Z,81.55
2023-02-04T19:57:25.350Z,82.12
2023-02-04T19:59:55.495Z,81.92
2023-02-04T20:02:35.362Z,82.11
2023-02-04T20:05:15.727Z,82.13
2023-02-04T20:07:42.233Z,82.26
2023-02-04T20:10:08.764Z,82.47
2023-02-04T20:12:35.150Z,82.03
2023-02-04T20:15:15.869Z,81.85
2023-02-04T20:17:48.651Z,82.00
2023-02-04T20:20:18.329Z,81.85
2023-02-04T20:23:02.160Z,81.71
2023-02-04T20:25:44.845Z,81.70
2023-02-04T20:28:26.404Z,81.90
2023-02-04T20:30:54.835Z,82.07
2023-02-04T20:33:33.472Z,82.41
2023-02-04T20:36:26.131Z,81.91
2023-02-04T20:38:59.444Z,81.84
2023-02-04T20:41:25.825Z,82.20
2023-02-04T20:43:52.177Z,81.90
2023-02-04T20:46:24.942Z,82.24
2023-02-04T20:48:52.032Z,82.30
2023-02-04T20:51:24.553Z,82.12
2023-02-04T20:53:59.188Z,82.44
2023-02-04T20:56:35.382Z,82.15
2023-02-04T20:59:23.219Z,82.46
2023-02-04T21:01:50.243Z,82.53
2023-02-04T21:04:29.143Z,82.36
2023-02-04T21:07:03.872Z,82.56
2023-02-04T21:09:32.744Z,82.22
2023-02-04T21:12:00.550Z,82.58
2023-02-04T21:14:28.024Z,82.42
2023-02-04T21:16:55.349Z,82.32
2023-02-04T21:19:23.655Z,82.04
2023-02-04T21:21:50.543Z,81.87
2023-02-04T21:24:17.263Z,81.91
2023-02-04T21:26:44.360Z,81.87
2023-02-04T21:29:11.319Z,81.71
2023-02-04T21:31:38.107Z,82.45
2023-02-04T21:34:05.378Z,82.32
2023-02-04T21:36:31.880Z,82.34
2023-02-04T21:38:58.432Z,82.12
2023-02-04T21:41:25.135Z,82.14
2023-02-04T21:43:51.513Z,82.34
2023-02-04T21:46:18.777Z,82.02
2023-02-04T21:48:45.938Z,82.36
2023-02-04T21:51:13.373Z,82.00
2023-02-04T21:53:40.110Z,82.29
2023-02-04T21:56:07.356Z,81.78
2023-02-04T21:58:33.991Z,81.95
2023-02-04T22:01:00.824Z,82.17
2023-02-04T22:03:27.238Z,81.92
2023-02-04T22:05:53.604Z,82.14
2023-02-04T22:08:19.978Z,82.37
2023-02-04T22:10:46.315Z,82.48
2023-02-04T22:13:12.659Z,82.26
2023-02-04T22:15:39.009Z,82.28
2023-02-04T22:18:05.427Z,82.42
2023-02-04T22:20:31.772Z,82.39
2023-02-04T22:22:58.166Z,82.41
2023-02-04T22:25:24.508Z,82.66
2023-02-04T22:27:50.877Z,82.94
2023-02-04T22:30:18.065Z,82.84
2023-02-04T22:32:44.657Z,83.34
2023-02-04T22:35:12.330Z,83.48
2023-02-04T22:37:40.195Z,83.18
2023-02-04T22:40:08.154Z,83.16
2023-02-04T22:42:34.616Z,83.64
2023-02-04T22:45:02.405Z,83.34
2023-02-04T22:47:28.793Z,83.57
2023-02-04T22:49:55.123Z,83.19
2023-02-04T22:52:21.553Z,83.40
2023-02-04T22:54:47.922Z,83.74
2023-02-04T22:57:14.278Z,83.85
2023-02-04T22:59:40.593Z,83.89
2023-02-04T23:02:07.044Z,84.09
2023-02-04T23:04:33.417Z,83.75
2023-02-04T23:07:04.279Z,83.64
2023-02-04T23:09:32.482Z,84.03
2023-02-04T23:12:12.409Z,83.88
2023-02-04T23:14:40.687Z,83.76
2023-02-04T23:17:07.425Z,83.54
2023-02-04T23:19:33.820Z,83.71
2023-02-04T23:22:00.305Z,83.40
2023-02-04T23:24:26.763Z,83.54
2023-02-04T23:26:53.586Z,83.72
2023-02-04T23:29:19.919Z,83.99
2023-02-04T23:31:46.255Z,84.16
2023-02-04T23:34:12.617Z,83.94
2023-02-04T23:36:38.934Z,84.08
2023-02-04T23:39:05.307Z,83.94
2023-02-04T23:41:31.631Z,84.22
2023-02-04T23:43:57.969Z,84.75
2023-02-04T23:46:24.429Z,84.45
2023-02-04T23:48:50.745Z,84.35
2023-02-04T23:51:17.069Z,84.63
2023-02-04T23:53:43.439Z,84.52
2023-02-04T23:56:09.767Z,84.59
2023-02-04T23:58:36.127Z,84.25
